sensor_id;sensor_type;location;lat;lon;timestamp;pressure;altitude;pressure_sealevel;temperature;humidity
19457;BME280;9867;48.094;11.478;2022-10-16T00:01:05;95206.72;;;14.21;100.00
19457;BME280;9867;48.094;11.478;2022-10-16T00:03:35;95210.84;;;14.10;100.00
19457;BME280;9867;48.094;11.478;2022-10-16T00:06:03;95212.63;;;14.10;100.00
19457;BME280;9867;48.094;11.478;2022-10-16T00:08:32;95213.06;;;14.07;100.00
19457;BME280;9867;48.094;11.478;2022-10-16T00:11:01;95223.53;;;14.12;100.00
19457;BME280;9867;48.094;11.478;2022-10-16T00:13:29;95213.06;;;14.07;100.00
19457;BME280;9867;48.094;11.478;2022-10-16T00:15:58;95220.38;;;14.10;100.00
19457;BME280;9867;48.094;11.478;2022-10-16T00:18:27;95234.91;;;14.04;100.00
19457;BME280;9867;48.094;11.478;2022-10-16T00:21:01;95225.75;;;13.90;100.00
19457;BME280;9867;48.094;11.478;2022-10-16T00:23:29;95222.28;;;13.96;100.00
19457;BME280;9867;48.094;11.478;2022-10-16T00:25:59;95221.50;;;13.95;100.00
19457;BME280;9867;48.094;11.478;2022-10-16T00:28:28;95223.88;;;13.97;100.00
19457;BME280;9867;48.094;11.478;2022-10-16T00:30:56;95223.09;;;13.96;100.00
19457;BME280;9867;48.094;11.478;2022-10-16T00:33:24;95216.81;;;13.92;100.00
19457;BME280;9867;48.094;11.478;2022-10-16T00:35:52;95214.13;;;13.99;100.00
19457;BME280;9867;48.094;11.478;2022-10-16T00:38:22;95221.66;;;14.00;100.00
19457;BME280;9867;48.094;11.478;2022-10-16T00:40:49;95216.91;;;13.97;100.00
19457;BME280;9867;48.094;11.478;2022-10-16T00:43:34;95211.97;;;13.96;100.00
19457;BME280;9867;48.094;11.478;2022-10-16T00:46:05;95222.22;;;14.03;100.00
19457;BME280;9867;48.094;11.478;2022-10-16T00:48:36;95217.66;;;14.05;100.00
19457;BME280;9867;48.094;11.478;2022-10-16T00:51:05;95222.09;;;14.16;100.00
19457;BME280;9867;48.094;11.478;2022-10-16T00:53:36;95219.00;;;14.25;100.00
19457;BME280;9867;48.094;11.478;2022-10-16T00:56:04;95216.56;;;14.30;100.00
19457;BME280;9867;48.094;11.478;2022-10-16T00:58:32;95220.13;;;14.29;100.00
19457;BME280;9867;48.094;11.478;2022-10-16T01:01:00;95229.25;;;14.32;100.00
19457;BME280;9867;48.094;11.478;2022-10-16T01:03:30;95231.69;;;14.27;100.00
19457;BME280;9867;48.094;11.478;2022-10-16T01:06:10;95225.78;;;14.20;100.00
19457;BME280;9867;48.094;11.478;2022-10-16T01:08:53;95223.66;;;14.17;100.00
19457;BME280;9867;48.094;11.478;2022-10-16T01:11:34;95223.88;;;14.15;100.00
19457;BME280;9867;48.094;11.478;2022-10-16T01:14:11;95234.75;;;14.17;100.00
19457;BME280;9867;48.094;11.478;2022-10-16T01:16:46;95238.59;;;14.15;100.00
19457;BME280;9867;48.094;11.478;2022-10-16T01:19:20;95234.63;;;14.12;100.00
19457;BME280;9867;48.094;11.478;2022-10-16T01:21:53;95238.06;;;14.06;100.00
19457;BME280;9867;48.094;11.478;2022-10-16T01:24:31;95243.53;;;14.16;100.00
19457;BME280;9867;48.094;11.478;2022-10-16T01:27:09;95240.22;;;14.09;100.00
19457;BME280;9867;48.094;11.478;2022-10-16T01:29:42;95238.13;;;14.18;100.00
19457;BME280;9867;48.094;11.478;2022-10-16T01:32:16;95245.44;;;14.21;100.00
19457;BME280;9867;48.094;11.478;2022-10-16T01:34:50;95239.84;;;14.24;100.00
19457;BME280;9867;48.094;11.478;2022-10-16T01:37:36;95246.00;;;14.23;100.00
19457;BME280;9867;48.094;11.478;2022-10-16T01:40:11;95243.38;;;14.11;100.00
19457;BME280;9867;48.094;11.478;2022-10-16T01:42:43;95248.22;;;14.19;100.00
19457;BME280;9867;48.094;11.478;2022-10-16T01:45:17;95250.97;;;14.24;100.00
19457;BME280;9867;48.094;11.478;2022-10-16T01:47:47;95236.13;;;14.20;100.00
19457;BME280;9867;48.094;11.478;2022-10-16T01:50:18;95229.75;;;14.22;100.00
19457;BME280;9867;48.094;11.478;2022-10-16T01:52:50;95232.69;;;14.26;100.00
19457;BME280;9867;48.094;11.478;2022-10-16T01:55:28;95230.25;;;14.31;100.00
19457;BME280;9867;48.094;11.478;2022-10-16T01:58:01;95233.91;;;14.23;100.00
19457;BME280;9867;48.094;11.478;2022-10-16T02:00:31;95227.59;;;14.19;100.00
19457;BME280;9867;48.094;11.478;2022-10-16T02:03:01;95223.66;;;14.17;100.00
19457;BME280;9867;48.094;11.478;2022-10-16T02:05:32;95232.84;;;14.13;100.00
19457;BME280;9867;48.094;11.478;2022-10-16T02:08:01;95229.75;;;14.04;100.00
19457;BME280;9867;48.094;11.478;2022-10-16T02:10:31;95229.25;;;13.95;100.00
19457;BME280;9867;48.094;11.478;2022-10-16T02:13:05;95223.81;;;13.85;100.00
19457;BME280;9867;48.094;11.478;2022-10-16T02:15:33;95219.66;;;13.84;100.00
19457;BME280;9867;48.094;11.478;2022-10-16T02:18:01;95218.69;;;13.60;100.00
19457;BME280;9867;48.094;11.478;2022-10-16T02:20:34;95229.06;;;13.54;100.00
19457;BME280;9867;48.094;11.478;2022-10-16T02:23:05;95230.22;;;13.58;100.00
19457;BME280;9867;48.094;11.478;2022-10-16T02:25:38;95224.81;;;13.41;100.00
19457;BME280;9867;48.094;11.478;2022-10-16T02:28:16;95224.41;;;13.44;100.00
19457;BME280;9867;48.094;11.478;2022-10-16T02:30:49;95220.69;;;13.58;100.00
19457;BME280;9867;48.094;11.478;2022-10-16T02:33:19;95223.78;;;13.67;100.00
19457;BME280;9867;48.094;11.478;2022-10-16T02:35:49;95226.16;;;13.69;100.00
19457;BME280;9867;48.094;11.478;2022-10-16T02:38:19;95238.19;;;13.75;100.00
19457;BME280;9867;48.094;11.478;2022-10-16T02:40:47;95238.28;;;13.68;100.00
19457;BME280;9867;48.094;11.478;2022-10-16T02:43:17;95235.56;;;13.81;100.00
19457;BME280;9867;48.094;11.478;2022-10-16T02:45:46;95238.59;;;13.72;100.00
19457;BME280;9867;48.094;11.478;2022-10-16T02:48:13;95243.84;;;13.65;100.00
19457;BME280;9867;48.094;11.478;2022-10-16T02:50:41;95248.88;;;13.53;100.00
19457;BME280;9867;48.094;11.478;2022-10-16T02:53:09;95246.09;;;13.55;100.00
19457;BME280;9867;48.094;11.478;2022-10-16T02:55:37;95246.44;;;13.65;100.00
19457;BME280;9867;48.094;11.478;2022-10-16T02:58:05;95251.59;;;13.65;100.00
19457;BME280;9867;48.094;11.478;2022-10-16T03:00:34;95246.84;;;13.62;100.00
19457;BME280;9867;48.094;11.478;2022-10-16T03:03:02;95244.72;;;13.77;100.00
19457;BME280;9867;48.094;11.478;2022-10-16T03:05:29;95247.38;;;13.89;100.00
19457;BME280;9867;48.094;11.478;2022-10-16T03:07:57;95241.28;;;13.83;100.00
19457;BME280;9867;48.094;11.478;2022-10-16T03:10:27;95243.28;;;13.81;100.00
19457;BME280;9867;48.094;11.478;2022-10-16T03:12:55;95241.50;;;13.82;100.00
19457;BME280;9867;48.094;11.478;2022-10-16T03:15:22;95248.88;;;13.78;100.00
19457;BME280;9867;48.094;11.478;2022-10-16T03:17:51;95248.59;;;13.86;100.00
19457;BME280;9867;48.094;11.478;2022-10-16T03:20:19;95250.50;;;13.73;100.00
19457;BME280;9867;48.094;11.478;2022-10-16T03:22:47;95249.28;;;13.75;100.00
19457;BME280;9867;48.094;11.478;2022-10-16T03:25:15;95249.91;;;13.71;100.00
19457;BME280;9867;48.094;11.478;2022-10-16T03:27:43;95252.44;;;13.77;100.00
19457;BME280;9867;48.094;11.478;2022-10-16T03:30:11;95262.75;;;13.77;100.00
19457;BME280;9867;48.094;11.478;2022-10-16T03:32:39;95259.22;;;13.72;100.00
19457;BME280;9867;48.094;11.478;2022-10-16T03:35:08;95243.50;;;13.80;100.00
19457;BME280;9867;48.094;11.478;2022-10-16T03:37:36;95253.22;;;13.78;100.00
19457;BME280;9867;48.094;11.478;2022-10-16T03:40:05;95259.19;;;13.78;100.00
19457;BME280;9867;48.094;11.478;2022-10-16T03:42:33;95262.97;;;13.76;100.00
19457;BME280;9867;48.094;11.478;2022-10-16T03:45:04;95263.84;;;13.70;100.00
19457;BME280;9867;48.094;11.478;2022-10-16T03:47:32;95270.50;;;13.77;100.00
19457;BME280;9867;48.094;11.478;2022-10-16T03:50:00;95255.97;;;13.83;100.00
19457;BME280;9867;48.094;11.478;2022-10-16T03:52:29;95256.69;;;13.90;100.00
19457;BME280;9867;48.094;11.478;2022-10-16T03:54:58;95251.81;;;14.00;100.00
19457;BME280;9867;48.094;11.478;2022-10-16T03:57:26;95260.22;;;14.14;100.00
19457;BME280;9867;48.094;11.478;2022-10-16T03:59:54;95259.91;;;14.22;100.00
19457;BME280;9867;48.094;11.478;2022-10-16T04:02:22;95255.91;;;14.26;100.00
19457;BME280;9867;48.094;11.478;2022-10-16T04:04:50;95258.78;;;14.36;100.00
19457;BME280;9867;48.094;11.478;2022-10-16T04:07:18;95256.06;;;14.31;100.00
19457;BME280;9867;48.094;11.478;2022-10-16T04:09:47;95259.56;;;14.37;100.00
19457;BME280;9867;48.094;11.478;2022-10-16T04:12:15;95251.03;;;14.36;100.00
19457;BME280;9867;48.094;11.478;2022-10-16T04:14:43;95245.44;;;14.39;100.00
19457;BME280;9867;48.094;11.478;2022-10-16T04:17:11;95258.41;;;14.51;100.00
19457;BME280;9867;48.094;11.478;2022-10-16T04:19:38;95267.47;;;14.42;100.00
19457;BME280;9867;48.094;11.478;2022-10-16T04:22:06;95267.88;;;14.57;100.00
19457;BME280;9867;48.094;11.478;2022-10-16T04:24:34;95271.97;;;14.46;100.00
19457;BME280;9867;48.094;11.478;2022-10-16T04:27:03;95253.03;;;14.34;100.00
19457;BME280;9867;48.094;11.478;2022-10-16T04:29:31;95262.56;;;14.33;100.00
19457;BME280;9867;48.094;11.478;2022-10-16T04:31:59;95266.81;;;14.28;100.00
19457;BME280;9867;48.094;11.478;2022-10-16T04:34:27;95264.72;;;14.37;100.00
19457;BME280;9867;48.094;11.478;2022-10-16T04:36:55;95265.22;;;14.45;100.00
19457;BME280;9867;48.094;11.478;2022-10-16T04:39:23;95282.16;;;14.59;100.00
19457;BME280;9867;48.094;11.478;2022-10-16T04:41:50;95278.56;;;14.60;100.00
19457;BME280;9867;48.094;11.478;2022-10-16T04:44:20;95278.56;;;14.60;100.00
19457;BME280;9867;48.094;11.478;2022-10-16T04:46:50;95270.41;;;14.63;100.00
19457;BME280;9867;48.094;11.478;2022-10-16T04:49:17;95256.13;;;14.61;100.00
19457;BME280;9867;48.094;11.478;2022-10-16T04:51:45;95255.44;;;14.65;100.00
19457;BME280;9867;48.094;11.478;2022-10-16T04:54:13;95262.97;;;14.67;100.00
19457;BME280;9867;48.094;11.478;2022-10-16T04:56:41;95250.78;;;14.74;100.00
19457;BME280;9867;48.094;11.478;2022-10-16T04:59:13;95265.84;;;14.77;100.00
19457;BME280;9867;48.094;11.478;2022-10-16T05:01:43;95259.13;;;14.58;100.00
19457;BME280;9867;48.094;11.478;2022-10-16T05:04:11;95259.78;;;14.35;100.00
19457;BME280;9867;48.094;11.478;2022-10-16T05:06:42;95270.09;;;14.35;100.00
19457;BME280;9867;48.094;11.478;2022-10-16T05:09:09;95256.84;;;14.50;100.00
19457;BME280;9867;48.094;11.478;2022-10-16T05:11:37;95266.56;;;14.66;100.00
19457;BME280;9867;48.094;11.478;2022-10-16T05:14:05;95264.97;;;14.65;100.00
19457;BME280;9867;48.094;11.478;2022-10-16T05:16:33;95256.59;;;14.70;100.00
19457;BME280;9867;48.094;11.478;2022-10-16T05:19:02;95271.88;;;14.71;100.00
19457;BME280;9867;48.094;11.478;2022-10-16T05:21:50;95273.97;;;14.62;100.00
19457;BME280;9867;48.094;11.478;2022-10-16T05:24:18;95271.19;;;14.64;100.00
19457;BME280;9867;48.094;11.478;2022-10-16T05:26:46;95266.53;;;14.54;100.00
19457;BME280;9867;48.094;11.478;2022-10-16T05:29:14;95261.44;;;14.48;100.00
19457;BME280;9867;48.094;11.478;2022-10-16T05:31:42;95269.81;;;14.61;100.00
19457;BME280;9867;48.094;11.478;2022-10-16T05:34:11;95270.28;;;14.70;100.00
19457;BME280;9867;48.094;11.478;2022-10-16T05:36:39;95281.97;;;14.73;100.00
19457;BME280;9867;48.094;11.478;2022-10-16T05:39:07;95297.06;;;14.57;100.00
19457;BME280;9867;48.094;11.478;2022-10-16T05:41:34;95291.78;;;14.52;100.00
19457;BME280;9867;48.094;11.478;2022-10-16T05:44:04;95295.78;;;14.48;100.00
19457;BME280;9867;48.094;11.478;2022-10-16T05:46:33;95294.72;;;14.56;100.00
19457;BME280;9867;48.094;11.478;2022-10-16T05:49:01;95299.72;;;14.51;100.00
19457;BME280;9867;48.094;11.478;2022-10-16T05:51:30;95304.63;;;14.41;100.00
19457;BME280;9867;48.094;11.478;2022-10-16T05:53:58;95300.50;;;14.33;100.00
19457;BME280;9867;48.094;11.478;2022-10-16T05:56:26;95300.72;;;14.31;100.00
19457;BME280;9867;48.094;11.478;2022-10-16T05:58:53;95302.28;;;14.32;100.00
19457;BME280;9867;48.094;11.478;2022-10-16T06:01:21;95305.66;;;14.33;100.00
19457;BME280;9867;48.094;11.478;2022-10-16T06:03:51;95305.25;;;14.36;100.00
19457;BME280;9867;48.094;11.478;2022-10-16T06:06:21;95301.00;;;14.42;100.00
19457;BME280;9867;48.094;11.478;2022-10-16T06:08:53;95312.00;;;14.55;100.00
19457;BME280;9867;48.094;11.478;2022-10-16T06:11:23;95304.38;;;14.42;100.00
19457;BME280;9867;48.094;11.478;2022-10-16T06:13:52;95313.84;;;14.48;100.00
19457;BME280;9867;48.094;11.478;2022-10-16T06:16:20;95321.97;;;14.52;100.00
19457;BME280;9867;48.094;11.478;2022-10-16T06:18:50;95318.66;;;14.45;100.00
19457;BME280;9867;48.094;11.478;2022-10-16T06:21:20;95315.78;;;14.34;100.00
19457;BME280;9867;48.094;11.478;2022-10-16T06:23:48;95323.47;;;14.41;100.00
19457;BME280;9867;48.094;11.478;2022-10-16T06:26:19;95328.47;;;14.36;100.00
19457;BME280;9867;48.094;11.478;2022-10-16T06:28:47;95325.81;;;14.43;100.00
19457;BME280;9867;48.094;11.478;2022-10-16T06:31:16;95331.06;;;14.54;100.00
19457;BME280;9867;48.094;11.478;2022-10-16T06:33:44;95330.69;;;14.69;100.00
19457;BME280;9867;48.094;11.478;2022-10-16T06:36:14;95342.91;;;14.80;100.00
19457;BME280;9867;48.094;11.478;2022-10-16T06:38:43;95344.09;;;14.78;100.00
19457;BME280;9867;48.094;11.478;2022-10-16T06:41:14;95346.06;;;14.64;100.00
19457;BME280;9867;48.094;11.478;2022-10-16T06:43:43;95350.72;;;14.55;100.00
19457;BME280;9867;48.094;11.478;2022-10-16T06:46:14;95348.84;;;14.44;100.00
19457;BME280;9867;48.094;11.478;2022-10-16T06:48:42;95362.13;;;14.48;100.00
19457;BME280;9867;48.094;11.478;2022-10-16T06:51:12;95361.06;;;14.55;100.00
19457;BME280;9867;48.094;11.478;2022-10-16T06:53:42;95356.03;;;14.60;100.00
19457;BME280;9867;48.094;11.478;2022-10-16T06:56:29;95360.69;;;14.70;100.00
19457;BME280;9867;48.094;11.478;2022-10-16T06:58:59;95377.91;;;14.76;100.00
19457;BME280;9867;48.094;11.478;2022-10-16T07:01:28;95368.88;;;14.85;100.00
19457;BME280;9867;48.094;11.478;2022-10-16T07:03:57;95373.94;;;14.92;100.00
19457;BME280;9867;48.094;11.478;2022-10-16T07:06:26;95371.72;;;14.95;100.00
19457;BME280;9867;48.094;11.478;2022-10-16T07:08:54;95375.66;;;14.98;100.00
19457;BME280;9867;48.094;11.478;2022-10-16T07:11:23;95382.34;;;15.06;100.00
19457;BME280;9867;48.094;11.478;2022-10-16T07:13:51;95384.47;;;15.09;100.00
19457;BME280;9867;48.094;11.478;2022-10-16T07:16:24;95401.69;;;15.15;100.00
19457;BME280;9867;48.094;11.478;2022-10-16T07:18:53;95393.84;;;15.21;100.00
19457;BME280;9867;48.094;11.478;2022-10-16T07:21:27;95391.53;;;15.31;100.00
19457;BME280;9867;48.094;11.478;2022-10-16T07:23:57;95403.84;;;15.48;100.00
19457;BME280;9867;48.094;11.478;2022-10-16T07:26:27;95405.16;;;15.57;100.00
19457;BME280;9867;48.094;11.478;2022-10-16T07:28:56;95406.66;;;15.76;100.00
19457;BME280;9867;48.094;11.478;2022-10-16T07:31:25;95417.03;;;15.88;100.00
19457;BME280;9867;48.094;11.478;2022-10-16T07:33:54;95418.28;;;15.97;100.00
19457;BME280;9867;48.094;11.478;2022-10-16T07:36:21;95415.13;;;15.95;100.00
19457;BME280;9867;48.094;11.478;2022-10-16T07:38:49;95422.22;;;15.99;100.00
19457;BME280;9867;48.094;11.478;2022-10-16T07:41:22;95422.25;;;16.23;100.00
19457;BME280;9867;48.094;11.478;2022-10-16T07:43:52;95431.50;;;16.42;100.00
19457;BME280;9867;48.094;11.478;2022-10-16T07:46:22;95430.34;;;16.61;100.00
19457;BME280;9867;48.094;11.478;2022-10-16T07:48:51;95448.31;;;16.75;100.00
19457;BME280;9867;48.094;11.478;2022-10-16T07:51:21;95439.72;;;16.86;100.00
19457;BME280;9867;48.094;11.478;2022-10-16T07:53:50;95448.72;;;16.95;100.00
19457;BME280;9867;48.094;11.478;2022-10-16T07:56:19;95460.22;;;16.87;100.00
19457;BME280;9867;48.094;11.478;2022-10-16T07:58:47;95453.56;;;16.80;100.00
19457;BME280;9867;48.094;11.478;2022-10-16T08:01:17;95460.84;;;17.06;100.00
19457;BME280;9867;48.094;11.478;2022-10-16T08:03:47;95467.78;;;17.29;100.00
19457;BME280;9867;48.094;11.478;2022-10-16T08:06:20;95462.25;;;17.37;100.00
19457;BME280;9867;48.094;11.478;2022-10-16T08:08:54;95455.22;;;17.49;100.00
19457;BME280;9867;48.094;11.478;2022-10-16T08:11:22;95459.91;;;17.64;100.00
19457;BME280;9867;48.094;11.478;2022-10-16T08:13:51;95468.69;;;17.75;100.00
19457;BME280;9867;48.094;11.478;2022-10-16T08:16:19;95462.56;;;17.81;100.00
19457;BME280;9867;48.094;11.478;2022-10-16T08:18:47;95463.38;;;17.98;100.00
19457;BME280;9867;48.094;11.478;2022-10-16T08:21:18;95473.78;;;18.15;100.00
19457;BME280;9867;48.094;11.478;2022-10-16T08:23:47;95472.53;;;18.17;100.00
19457;BME280;9867;48.094;11.478;2022-10-16T08:26:24;95468.03;;;18.29;100.00
19457;BME280;9867;48.094;11.478;2022-10-16T08:28:53;95476.78;;;18.23;100.00
19457;BME280;9867;48.094;11.478;2022-10-16T08:31:21;95475.38;;;18.16;100.00
19457;BME280;9867;48.094;11.478;2022-10-16T08:33:49;95484.66;;;18.28;100.00
19457;BME280;9867;48.094;11.478;2022-10-16T08:36:20;95481.66;;;18.36;100.00
19457;BME280;9867;48.094;11.478;2022-10-16T08:38:49;95472.53;;;18.51;100.00
19457;BME280;9867;48.094;11.478;2022-10-16T08:41:27;95494.91;;;18.68;100.00
19457;BME280;9867;48.094;11.478;2022-10-16T08:44:23;95483.25;;;18.88;100.00
19457;BME280;9867;48.094;11.478;2022-10-16T08:47:02;95496.66;;;19.01;100.00
19457;BME280;9867;48.094;11.478;2022-10-16T08:49:41;95497.22;;;19.03;100.00
19457;BME280;9867;48.094;11.478;2022-10-16T08:52:12;95506.19;;;19.13;100.00
19457;BME280;9867;48.094;11.478;2022-10-16T08:54:43;95512.53;;;19.22;100.00
19457;BME280;9867;48.094;11.478;2022-10-16T08:57:19;95500.88;;;19.24;100.00
19457;BME280;9867;48.094;11.478;2022-10-16T08:59:52;95525.25;;;19.40;100.00
19457;BME280;9867;48.094;11.478;2022-10-16T09:02:28;95504.81;;;19.49;100.00
19457;BME280;9867;48.094;11.478;2022-10-16T09:05:03;95497.94;;;19.59;100.00
19457;BME280;9867;48.094;11.478;2022-10-16T09:07:52;95504.94;;;19.81;100.00
19457;BME280;9867;48.094;11.478;2022-10-16T09:10:31;95523.75;;;19.88;100.00
19457;BME280;9867;48.094;11.478;2022-10-16T09:13:13;95518.50;;;19.83;100.00
19457;BME280;9867;48.094;11.478;2022-10-16T09:15:50;95513.03;;;19.84;100.00
19457;BME280;9867;48.094;11.478;2022-10-16T09:18:24;95520.16;;;19.94;100.00
19457;BME280;9867;48.094;11.478;2022-10-16T09:21:05;95513.50;;;20.08;100.00
19457;BME280;9867;48.094;11.478;2022-10-16T09:23:38;95513.44;;;19.98;100.00
19457;BME280;9867;48.094;11.478;2022-10-16T09:26:11;95510.41;;;20.06;100.00
19457;BME280;9867;48.094;11.478;2022-10-16T09:28:43;95520.69;;;20.23;100.00
19457;BME280;9867;48.094;11.478;2022-10-16T09:31:15;95522.91;;;20.36;100.00
19457;BME280;9867;48.094;11.478;2022-10-16T09:33:48;95511.69;;;20.35;100.00
19457;BME280;9867;48.094;11.478;2022-10-16T09:36:16;95517.03;;;20.46;100.00
19457;BME280;9867;48.094;11.478;2022-10-16T09:38:46;95519.19;;;20.54;100.00
19457;BME280;9867;48.094;11.478;2022-10-16T09:41:18;95518.69;;;20.62;100.00
19457;BME280;9867;48.094;11.478;2022-10-16T09:43:49;95524.28;;;20.75;100.00
19457;BME280;9867;48.094;11.478;2022-10-16T09:46:24;95533.50;;;20.88;100.00
19457;BME280;9867;48.094;11.478;2022-10-16T09:48:54;95530.47;;;21.01;100.00
19457;BME280;9867;48.094;11.478;2022-10-16T09:51:25;95533.66;;;21.14;100.00
19457;BME280;9867;48.094;11.478;2022-10-16T09:53:57;95528.78;;;21.27;100.00
19457;BME280;9867;48.094;11.478;2022-10-16T09:56:27;95535.59;;;21.33;100.00
19457;BME280;9867;48.094;11.478;2022-10-16T09:58:57;95529.59;;;21.33;100.00
19457;BME280;9867;48.094;11.478;2022-10-16T10:01:32;95536.69;;;21.37;100.00
19457;BME280;9867;48.094;11.478;2022-10-16T10:04:03;95532.31;;;21.58;100.00
19457;BME280;9867;48.094;11.478;2022-10-16T10:06:33;95536.81;;;21.68;100.00
19457;BME280;9867;48.094;11.478;2022-10-16T10:09:16;95539.97;;;21.80;100.00
19457;BME280;9867;48.094;11.478;2022-10-16T10:11:48;95542.13;;;21.93;100.00
19457;BME280;9867;48.094;11.478;2022-10-16T10:14:20;95543.66;;;21.84;100.00
19457;BME280;9867;48.094;11.478;2022-10-16T10:16:51;95532.44;;;21.99;100.00
19457;BME280;9867;48.094;11.478;2022-10-16T10:19:21;95534.53;;;21.92;100.00
19457;BME280;9867;48.094;11.478;2022-10-16T10:21:58;95537.19;;;22.02;100.00
19457;BME280;9867;48.094;11.478;2022-10-16T10:24:29;95534.25;;;21.98;100.00
19457;BME280;9867;48.094;11.478;2022-10-16T10:27:03;95541.13;;;22.04;100.00
19457;BME280;9867;48.094;11.478;2022-10-16T10:29:46;95542.47;;;22.27;100.00
19457;BME280;9867;48.094;11.478;2022-10-16T10:32:22;95539.59;;;22.34;100.00
19457;BME280;9867;48.094;11.478;2022-10-16T10:35:11;95540.91;;;22.41;100.00
19457;BME280;9867;48.094;11.478;2022-10-16T10:37:52;95543.78;;;22.55;100.00
19457;BME280;9867;48.094;11.478;2022-10-16T10:40:34;95536.97;;;22.74;100.00
19457;BME280;9867;48.094;11.478;2022-10-16T10:43:15;95533.59;;;22.99;100.00
19457;BME280;9867;48.094;11.478;2022-10-16T10:45:48;95538.28;;;23.02;93.45
19457;BME280;9867;48.094;11.478;2022-10-16T10:48:25;95536.19;;;23.04;96.55
19457;BME280;9867;48.094;11.478;2022-10-16T10:50:58;95536.19;;;23.09;91.81
19457;BME280;9867;48.094;11.478;2022-10-16T10:53:37;95537.47;;;23.17;94.55
19457;BME280;9867;48.094;11.478;2022-10-16T10:56:18;95540.09;;;23.22;86.30
19457;BME280;9867;48.094;11.478;2022-10-16T11:02:00;95542.69;;;23.32;82.38
19457;BME280;9867;48.094;11.478;2022-10-16T11:04:38;95544.75;;;23.40;81.32
19457;BME280;9867;48.094;11.478;2022-10-16T11:07:19;95526.41;;;23.40;85.00
19457;BME280;9867;48.094;11.478;2022-10-16T11:09:52;95535.09;;;23.31;84.65
19457;BME280;9867;48.094;11.478;2022-10-16T11:12:26;95535.03;;;23.46;84.93
19457;BME280;9867;48.094;11.478;2022-10-16T11:15:02;95526.38;;;23.61;86.33
19457;BME280;9867;48.094;11.478;2022-10-16T11:17:35;95543.22;;;23.24;73.98
19457;BME280;9867;48.094;11.478;2022-10-16T11:20:13;95534.38;;;23.10;81.21
19457;BME280;9867;48.094;11.478;2022-10-16T11:22:45;95535.38;;;23.24;85.87
19457;BME280;9867;48.094;11.478;2022-10-16T11:25:21;95530.38;;;23.33;83.14
19457;BME280;9867;48.094;11.478;2022-10-16T11:27:55;95534.53;;;23.54;79.12
19457;BME280;9867;48.094;11.478;2022-10-16T11:30:28;95536.03;;;23.65;79.67
19457;BME280;9867;48.094;11.478;2022-10-16T11:33:04;95535.25;;;23.65;72.95
19457;BME280;9867;48.094;11.478;2022-10-16T11:35:47;95547.88;;;23.42;70.85
19457;BME280;9867;48.094;11.478;2022-10-16T11:38:25;95545.81;;;23.34;68.71
19457;BME280;9867;48.094;11.478;2022-10-16T11:40:59;95527.69;;;23.48;72.30
19457;BME280;9867;48.094;11.478;2022-10-16T11:43:32;95532.38;;;23.66;72.56
19457;BME280;9867;48.094;11.478;2022-10-16T11:46:09;95523.94;;;23.79;66.09
19457;BME280;9867;48.094;11.478;2022-10-16T11:48:45;95529.88;;;23.95;64.01
19457;BME280;9867;48.094;11.478;2022-10-16T11:51:20;95535.91;;;23.96;64.16
19457;BME280;9867;48.094;11.478;2022-10-16T11:53:56;95525.53;;;24.20;64.32
19457;BME280;9867;48.094;11.478;2022-10-16T11:56:30;95525.28;;;24.16;59.60
19457;BME280;9867;48.094;11.478;2022-10-16T11:59:04;95529.22;;;24.13;58.11
19457;BME280;9867;48.094;11.478;2022-10-16T12:01:41;95521.31;;;23.79;58.05
19457;BME280;9867;48.094;11.478;2022-10-16T12:04:19;95529.03;;;24.05;59.83
19457;BME280;9867;48.094;11.478;2022-10-16T12:06:52;95532.69;;;24.09;57.48
19457;BME280;9867;48.094;11.478;2022-10-16T12:09:26;95543.75;;;24.01;55.17
19457;BME280;9867;48.094;11.478;2022-10-16T12:11:54;95527.13;;;24.15;58.68
19457;BME280;9867;48.094;11.478;2022-10-16T12:14:39;95521.91;;;24.55;55.72
19457;BME280;9867;48.094;11.478;2022-10-16T12:17:38;95518.19;;;24.22;59.27
19457;BME280;9867;48.094;11.478;2022-10-16T12:20:27;95525.81;;;24.13;61.85
19457;BME280;9867;48.094;11.478;2022-10-16T12:23:00;95532.50;;;23.95;64.78
19457;BME280;9867;48.094;11.478;2022-10-16T12:25:33;95525.81;;;24.13;59.47
19457;BME280;9867;48.094;11.478;2022-10-16T12:28:04;95522.63;;;24.26;60.74
19457;BME280;9867;48.094;11.478;2022-10-16T12:30:35;95520.28;;;24.20;60.10
19457;BME280;9867;48.094;11.478;2022-10-16T12:33:20;95538.94;;;24.13;63.38
19457;BME280;9867;48.094;11.478;2022-10-16T12:35:49;95518.97;;;24.22;62.40
19457;BME280;9867;48.094;11.478;2022-10-16T12:38:19;95512.00;;;24.46;64.54
19457;BME280;9867;48.094;11.478;2022-10-16T12:40:57;95514.84;;;24.50;66.16
19457;BME280;9867;48.094;11.478;2022-10-16T12:43:37;95520.22;;;24.69;67.40
19457;BME280;9867;48.094;11.478;2022-10-16T12:46:22;95511.03;;;25.00;65.43
19457;BME280;9867;48.094;11.478;2022-10-16T12:48:50;95509.84;;;25.11;67.24
19457;BME280;9867;48.094;11.478;2022-10-16T12:51:36;95509.97;;;25.01;60.67
19457;BME280;9867;48.094;11.478;2022-10-16T12:54:11;95512.53;;;25.30;63.02
19457;BME280;9867;48.094;11.478;2022-10-16T12:56:47;95509.06;;;25.59;56.90
19457;BME280;9867;48.094;11.478;2022-10-16T12:59:28;95511.91;;;25.38;65.69
19457;BME280;9867;48.094;11.478;2022-10-16T13:02:16;95508.81;;;25.79;64.73
19457;BME280;9867;48.094;11.478;2022-10-16T13:05:08;95506.84;;;25.71;60.74
19457;BME280;9867;48.094;11.478;2022-10-16T13:07:49;95507.13;;;25.69;55.03
19457;BME280;9867;48.094;11.478;2022-10-16T13:10:25;95498.22;;;25.65;55.42
19457;BME280;9867;48.094;11.478;2022-10-16T13:13:13;95512.16;;;26.03;55.24
19457;BME280;9867;48.094;11.478;2022-10-16T13:15:55;95499.00;;;25.66;55.23
19457;BME280;9867;48.094;11.478;2022-10-16T13:18:32;95514.28;;;25.64;51.90
19457;BME280;9867;48.094;11.478;2022-10-16T13:21:18;95513.16;;;24.98;56.46